sensor_id;sensor_type;location;lat;lon;timestamp;P1;durP1;ratioP1;P2;durP2;ratioP2
16193;SDS011;8204;53.582;10.080;2022-08-19T00:00:29;19.17;;;17.27;;
16193;SDS011;8204;53.582;10.080;2022-08-19T00:02:56;18.93;;;17.20;;
16193;SDS011;8204;53.582;10.080;2022-08-19T00:05:22;16.83;;;15.33;;
16193;SDS011;8204;53.582;10.080;2022-08-19T00:07:51;17.77;;;15.90;;
16193;SDS011;8204;53.582;10.080;2022-08-19T00:10:18;19.70;;;17.77;;
16193;SDS011;8204;53.582;10.080;2022-08-19T00:12:46;19.40;;;17.37;;
16193;SDS011;8204;53.582;10.080;2022-08-19T00:15:13;18.17;;;16.67;;
16193;SDS011;8204;53.582;10.080;2022-08-19T00:17:42;19.20;;;17.47;;
16193;SDS011;8204;53.582;10.080;2022-08-19T00:20:11;21.53;;;19.30;;
16193;SDS011;8204;53.582;10.080;2022-08-19T00:22:39;23.43;;;21.50;;
16193;SDS011;8204;53.582;10.080;2022-08-19T00:25:08;26.50;;;24.10;;
16193;SDS011;8204;53.582;10.080;2022-08-19T00:27:34;27.63;;;25.33;;
16193;SDS011;8204;53.582;10.080;2022-08-19T00:30:01;26.07;;;23.57;;
16193;SDS011;8204;53.582;10.080;2022-08-19T00:32:29;28.43;;;25.60;;
16193;SDS011;8204;53.582;10.080;2022-08-19T00:34:56;28.57;;;25.93;;
16193;SDS011;8204;53.582;10.080;2022-08-19T00:37:23;27.40;;;24.93;;
16193;SDS011;8204;53.582;10.080;2022-08-19T00:39:51;28.43;;;25.50;;
16193;SDS011;8204;53.582;10.080;2022-08-19T00:42:19;32.53;;;29.47;;
16193;SDS011;8204;53.582;10.080;2022-08-19T00:44:47;29.17;;;26.43;;
16193;SDS011;8204;53.582;10.080;2022-08-19T00:47:14;34.07;;;30.97;;
16193;SDS011;8204;53.582;10.080;2022-08-19T00:49:41;28.10;;;25.27;;
16193;SDS011;8204;53.582;10.080;2022-08-19T00:52:16;29.63;;;26.63;;
16193;SDS011;8204;53.582;10.080;2022-08-19T00:54:47;29.63;;;26.77;;
16193;SDS011;8204;53.582;10.080;2022-08-19T00:57:15;28.90;;;26.20;;
16193;SDS011;8204;53.582;10.080;2022-08-19T00:59:47;29.33;;;26.57;;
16193;SDS011;8204;53.582;10.080;2022-08-19T01:02:17;31.57;;;28.67;;
16193;SDS011;8204;53.582;10.080;2022-08-19T01:04:44;31.37;;;28.23;;
16193;SDS011;8204;53.582;10.080;2022-08-19T01:07:10;33.23;;;29.87;;
16193;SDS011;8204;53.582;10.080;2022-08-19T01:09:38;30.77;;;27.60;;
16193;SDS011;8204;53.582;10.080;2022-08-19T01:12:05;34.43;;;29.53;;
16193;SDS011;8204;53.582;10.080;2022-08-19T01:14:32;29.53;;;26.47;;
16193;SDS011;8204;53.582;10.080;2022-08-19T01:17:01;30.83;;;27.97;;
16193;SDS011;8204;53.582;10.080;2022-08-19T01:19:28;33.50;;;29.43;;
16193;SDS011;8204;53.582;10.080;2022-08-19T01:22:03;33.10;;;29.80;;
16193;SDS011;8204;53.582;10.080;2022-08-19T01:24:36;32.93;;;29.77;;
16193;SDS011;8204;53.582;10.080;2022-08-19T01:27:03;31.23;;;28.13;;
16193;SDS011;8204;53.582;10.080;2022-08-19T01:29:31;31.97;;;28.10;;
16193;SDS011;8204;53.582;10.080;2022-08-19T01:31:57;29.73;;;26.60;;
16193;SDS011;8204;53.582;10.080;2022-08-19T01:34:25;32.20;;;29.13;;
16193;SDS011;8204;53.582;10.080;2022-08-19T01:36:51;30.37;;;27.57;;
16193;SDS011;8204;53.582;10.080;2022-08-19T01:39:21;28.13;;;25.60;;
16193;SDS011;8204;53.582;10.080;2022-08-19T01:41:50;30.27;;;27.23;;
16193;SDS011;8204;53.582;10.080;2022-08-19T01:44:19;31.40;;;28.43;;
16193;SDS011;8204;53.582;10.080;2022-08-19T01:46:49;32.47;;;29.17;;
16193;SDS011;8204;53.582;10.080;2022-08-19T01:49:17;29.37;;;26.50;;
16193;SDS011;8204;53.582;10.080;2022-08-19T01:51:45;27.13;;;24.63;;
16193;SDS011;8204;53.582;10.080;2022-08-19T01:54:13;27.67;;;25.07;;
16193;SDS011;8204;53.582;10.080;2022-08-19T01:56:41;28.57;;;25.73;;
16193;SDS011;8204;53.582;10.080;2022-08-19T01:59:10;26.87;;;24.23;;
16193;SDS011;8204;53.582;10.080;2022-08-19T02:01:39;29.00;;;26.40;;
16193;SDS011;8204;53.582;10.080;2022-08-19T02:04:06;27.90;;;25.30;;
16193;SDS011;8204;53.582;10.080;2022-08-19T02:06:32;26.10;;;23.73;;
16193;SDS011;8204;53.582;10.080;2022-08-19T02:08:59;25.73;;;23.43;;
16193;SDS011;8204;53.582;10.080;2022-08-19T02:11:27;28.07;;;25.20;;
16193;SDS011;8204;53.582;10.080;2022-08-19T02:13:56;27.87;;;25.07;;
16193;SDS011;8204;53.582;10.080;2022-08-19T02:16:24;27.37;;;24.60;;
16193;SDS011;8204;53.582;10.080;2022-08-19T02:18:51;30.33;;;27.07;;
16193;SDS011;8204;53.582;10.080;2022-08-19T02:21:18;27.23;;;24.73;;
16193;SDS011;8204;53.582;10.080;2022-08-19T02:23:46;29.13;;;26.20;;
16193;SDS011;8204;53.582;10.080;2022-08-19T02:26:13;27.13;;;24.30;;
16193;SDS011;8204;53.582;10.080;2022-08-19T02:28:39;29.40;;;26.87;;
16193;SDS011;8204;53.582;10.080;2022-08-19T02:31:08;28.37;;;25.67;;
16193;SDS011;8204;53.582;10.080;2022-08-19T02:33:36;30.43;;;27.53;;
16193;SDS011;8204;53.582;10.080;2022-08-19T02:36:03;29.90;;;26.73;;
16193;SDS011;8204;53.582;10.080;2022-08-19T02:38:31;29.57;;;26.73;;
16193;SDS011;8204;53.582;10.080;2022-08-19T02:40:58;30.83;;;27.60;;
16193;SDS011;8204;53.582;10.080;2022-08-19T02:43:26;26.17;;;23.50;;
16193;SDS011;8204;53.582;10.080;2022-08-19T02:45:54;30.07;;;26.93;;
16193;SDS011;8204;53.582;10.080;2022-08-19T02:48:22;29.93;;;26.97;;
16193;SDS011;8204;53.582;10.080;2022-08-19T02:50:51;28.70;;;25.03;;
16193;SDS011;8204;53.582;10.080;2022-08-19T02:53:20;29.43;;;26.57;;
16193;SDS011;8204;53.582;10.080;2022-08-19T02:55:47;28.10;;;25.07;;
16193;SDS011;8204;53.582;10.080;2022-08-19T02:58:15;28.60;;;25.73;;
16193;SDS011;8204;53.582;10.080;2022-08-19T03:00:42;33.23;;;29.80;;
16193;SDS011;8204;53.582;10.080;2022-08-19T03:03:10;29.77;;;26.90;;
16193;SDS011;8204;53.582;10.080;2022-08-19T03:05:37;36.07;;;30.17;;
16193;SDS011;8204;53.582;10.080;2022-08-19T03:08:05;30.60;;;27.40;;
16193;SDS011;8204;53.582;10.080;2022-08-19T03:10:31;33.57;;;28.07;;
16193;SDS011;8204;53.582;10.080;2022-08-19T03:12:58;31.13;;;27.83;;
16193;SDS011;8204;53.582;10.080;2022-08-19T03:15:24;31.23;;;28.30;;
16193;SDS011;8204;53.582;10.080;2022-08-19T03:17:51;33.27;;;27.40;;
16193;SDS011;8204;53.582;10.080;2022-08-19T03:20:17;37.63;;;30.77;;
16193;SDS011;8204;53.582;10.080;2022-08-19T03:22:44;34.17;;;30.63;;
16193;SDS011;8204;53.582;10.080;2022-08-19T03:25:12;36.33;;;30.80;;
16193;SDS011;8204;53.582;10.080;2022-08-19T03:27:38;35.30;;;31.17;;
16193;SDS011;8204;53.582;10.080;2022-08-19T03:30:05;39.77;;;32.00;;
16193;SDS011;8204;53.582;10.080;2022-08-19T03:32:33;40.17;;;32.97;;
16193;SDS011;8204;53.582;10.080;2022-08-19T03:34:59;45.40;;;33.97;;
16193;SDS011;8204;53.582;10.080;2022-08-19T03:37:26;44.77;;;33.80;;
16193;SDS011;8204;53.582;10.080;2022-08-19T03:39:53;40.73;;;33.40;;
16193;SDS011;8204;53.582;10.080;2022-08-19T03:42:21;36.07;;;28.00;;
16193;SDS011;8204;53.582;10.080;2022-08-19T03:44:47;39.67;;;31.80;;
16193;SDS011;8204;53.582;10.080;2022-08-19T03:47:14;40.57;;;31.87;;
16193;SDS011;8204;53.582;10.080;2022-08-19T03:49:42;40.03;;;31.87;;
16193;SDS011;8204;53.582;10.080;2022-08-19T03:52:08;37.27;;;30.27;;
16193;SDS011;8204;53.582;10.080;2022-08-19T03:54:35;36.97;;;31.80;;
16193;SDS011;8204;53.582;10.080;2022-08-19T03:57:03;39.43;;;31.73;;
16193;SDS011;8204;53.582;10.080;2022-08-19T03:59:32;39.77;;;31.23;;
16193;SDS011;8204;53.582;10.080;2022-08-19T04:02:01;37.10;;;30.00;;
16193;SDS011;8204;53.582;10.080;2022-08-19T04:04:33;36.67;;;32.57;;
16193;SDS011;8204;53.582;10.080;2022-08-19T04:07:00;37.00;;;30.37;;
16193;SDS011;8204;53.582;10.080;2022-08-19T04:09:26;36.67;;;31.33;;
16193;SDS011;8204;53.582;10.080;2022-08-19T04:11:54;34.90;;;27.83;;
16193;SDS011;8204;53.582;10.080;2022-08-19T04:14:23;36.77;;;28.93;;
16193;SDS011;8204;53.582;10.080;2022-08-19T04:16:52;35.03;;;31.17;;
16193;SDS011;8204;53.582;10.080;2022-08-19T04:19:19;34.90;;;29.03;;
16193;SDS011;8204;53.582;10.080;2022-08-19T04:21:47;34.57;;;29.03;;
16193;SDS011;8204;53.582;10.080;2022-08-19T04:24:16;31.63;;;27.57;;
16193;SDS011;8204;53.582;10.080;2022-08-19T04:26:43;32.27;;;28.07;;
16193;SDS011;8204;53.582;10.080;2022-08-19T04:29:11;29.20;;;26.30;;
16193;SDS011;8204;53.582;10.080;2022-08-19T04:31:40;30.43;;;27.23;;
16193;SDS011;8204;53.582;10.080;2022-08-19T04:34:10;36.50;;;31.77;;
16193;SDS011;8204;53.582;10.080;2022-08-19T04:36:39;32.20;;;28.80;;
16193;SDS011;8204;53.582;10.080;2022-08-19T04:39:08;33.43;;;28.90;;
16193;SDS011;8204;53.582;10.080;2022-08-19T04:41:35;33.93;;;30.33;;
16193;SDS011;8204;53.582;10.080;2022-08-19T04:44:20;36.27;;;30.90;;
16193;SDS011;8204;53.582;10.080;2022-08-19T04:46:47;38.07;;;34.13;;
16193;SDS011;8204;53.582;10.080;2022-08-19T04:49:16;36.30;;;30.03;;
16193;SDS011;8204;53.582;10.080;2022-08-19T04:51:44;34.17;;;29.83;;
16193;SDS011;8204;53.582;10.080;2022-08-19T04:54:13;36.67;;;32.03;;
16193;SDS011;8204;53.582;10.080;2022-08-19T04:56:40;39.17;;;35.07;;
16193;SDS011;8204;53.582;10.080;2022-08-19T04:59:07;40.70;;;35.60;;
16193;SDS011;8204;53.582;10.080;2022-08-19T05:01:33;42.97;;;38.43;;
16193;SDS011;8204;53.582;10.080;2022-08-19T05:04:02;42.50;;;37.80;;
16193;SDS011;8204;53.582;10.080;2022-08-19T05:06:32;43.60;;;38.90;;
16193;SDS011;8204;53.582;10.080;2022-08-19T05:08:59;43.33;;;38.87;;
16193;SDS011;8204;53.582;10.080;2022-08-19T05:11:28;47.40;;;39.77;;
16193;SDS011;8204;53.582;10.080;2022-08-19T05:13:56;44.03;;;37.03;;
16193;SDS011;8204;53.582;10.080;2022-08-19T05:16:23;49.23;;;40.13;;
16193;SDS011;8204;53.582;10.080;2022-08-19T05:18:51;50.07;;;41.80;;
16193;SDS011;8204;53.582;10.080;2022-08-19T05:21:37;44.13;;;39.43;;
16193;SDS011;8204;53.582;10.080;2022-08-19T05:24:22;47.23;;;41.37;;
16193;SDS011;8204;53.582;10.080;2022-08-19T05:26:50;45.83;;;40.77;;
16193;SDS011;8204;53.582;10.080;2022-08-19T05:29:19;43.80;;;39.20;;
16193;SDS011;8204;53.582;10.080;2022-08-19T05:31:47;48.27;;;39.43;;
16193;SDS011;8204;53.582;10.080;2022-08-19T05:34:15;46.20;;;40.17;;
16193;SDS011;8204;53.582;10.080;2022-08-19T05:36:44;44.87;;;40.07;;
16193;SDS011;8204;53.582;10.080;2022-08-19T05:39:12;46.97;;;40.77;;
16193;SDS011;8204;53.582;10.080;2022-08-19T05:41:41;46.47;;;41.70;;
16193;SDS011;8204;53.582;10.080;2022-08-19T05:44:08;44.20;;;38.30;;
16193;SDS011;8204;53.582;10.080;2022-08-19T05:46:35;44.67;;;39.87;;
16193;SDS011;8204;53.582;10.080;2022-08-19T05:49:03;42.43;;;38.20;;
16193;SDS011;8204;53.582;10.080;2022-08-19T05:51:31;45.17;;;39.93;;
16193;SDS011;8204;53.582;10.080;2022-08-19T05:54:00;46.50;;;41.47;;
16193;SDS011;8204;53.582;10.080;2022-08-19T05:56:27;47.67;;;39.03;;
16193;SDS011;8204;53.582;10.080;2022-08-19T05:58:55;48.10;;;41.00;;
16193;SDS011;8204;53.582;10.080;2022-08-19T06:01:23;47.50;;;42.30;;
16193;SDS011;8204;53.582;10.080;2022-08-19T06:03:51;49.07;;;41.07;;
16193;SDS011;8204;53.582;10.080;2022-08-19T06:06:19;45.07;;;39.23;;
16193;SDS011;8204;53.582;10.080;2022-08-19T06:08:46;48.40;;;43.37;;
16193;SDS011;8204;53.582;10.080;2022-08-19T06:11:17;49.50;;;42.80;;
16193;SDS011;8204;53.582;10.080;2022-08-19T06:13:47;44.17;;;39.50;;
16193;SDS011;8204;53.582;10.080;2022-08-19T06:16:17;42.37;;;37.90;;
16193;SDS011;8204;53.582;10.080;2022-08-19T06:18:48;44.90;;;38.30;;
16193;SDS011;8204;53.582;10.080;2022-08-19T06:21:17;45.30;;;38.73;;
16193;SDS011;8204;53.582;10.080;2022-08-19T06:23:45;42.57;;;37.90;;
16193;SDS011;8204;53.582;10.080;2022-08-19T06:26:12;47.33;;;37.57;;
16193;SDS011;8204;53.582;10.080;2022-08-19T06:28:41;43.23;;;38.57;;
16193;SDS011;8204;53.582;10.080;2022-08-19T06:31:10;41.47;;;36.93;;
16193;SDS011;8204;53.582;10.080;2022-08-19T06:33:39;44.33;;;39.17;;
16193;SDS011;8204;53.582;10.080;2022-08-19T06:36:06;40.83;;;36.77;;
16193;SDS011;8204;53.582;10.080;2022-08-19T06:38:33;37.77;;;34.00;;
16193;SDS011;8204;53.582;10.080;2022-08-19T06:41:00;44.70;;;35.17;;
16193;SDS011;8204;53.582;10.080;2022-08-19T06:43:28;39.70;;;35.17;;
16193;SDS011;8204;53.582;10.080;2022-08-19T06:45:55;42.73;;;38.27;;
16193;SDS011;8204;53.582;10.080;2022-08-19T06:48:24;42.17;;;35.30;;
16193;SDS011;8204;53.582;10.080;2022-08-19T06:50:51;37.97;;;32.80;;
16193;SDS011;8204;53.582;10.080;2022-08-19T06:53:17;38.50;;;34.40;;
16193;SDS011;8204;53.582;10.080;2022-08-19T06:55:44;38.63;;;33.03;;
16193;SDS011;8204;53.582;10.080;2022-08-19T06:58:10;40.23;;;34.87;;
16193;SDS011;8204;53.582;10.080;2022-08-19T07:00:37;39.33;;;32.90;;
16193;SDS011;8204;53.582;10.080;2022-08-19T07:03:05;46.47;;;36.07;;
16193;SDS011;8204;53.582;10.080;2022-08-19T07:05:32;35.80;;;31.97;;
16193;SDS011;8204;53.582;10.080;2022-08-19T07:07:58;37.07;;;33.00;;
16193;SDS011;8204;53.582;10.080;2022-08-19T07:10:25;43.13;;;32.50;;
16193;SDS011;8204;53.582;10.080;2022-08-19T07:12:51;38.27;;;34.07;;
16193;SDS011;8204;53.582;10.080;2022-08-19T07:15:18;43.63;;;35.10;;
16193;SDS011;8204;53.582;10.080;2022-08-19T07:17:46;46.03;;;35.57;;
16193;SDS011;8204;53.582;10.080;2022-08-19T07:20:14;43.73;;;37.33;;
16193;SDS011;8204;53.582;10.080;2022-08-19T07:22:41;47.00;;;38.70;;
16193;SDS011;8204;53.582;10.080;2022-08-19T07:25:08;43.93;;;36.40;;
16193;SDS011;8204;53.582;10.080;2022-08-19T07:27:36;40.33;;;36.10;;
16193;SDS011;8204;53.582;10.080;2022-08-19T07:30:03;43.07;;;38.47;;
16193;SDS011;8204;53.582;10.080;2022-08-19T07:32:30;46.33;;;41.30;;
16193;SDS011;8204;53.582;10.080;2022-08-19T07:34:57;46.17;;;38.30;;
16193;SDS011;8204;53.582;10.080;2022-08-19T07:37:26;46.27;;;40.03;;
16193;SDS011;8204;53.582;10.080;2022-08-19T07:39:53;43.73;;;39.20;;
16193;SDS011;8204;53.582;10.080;2022-08-19T07:42:20;52.70;;;40.57;;
16193;SDS011;8204;53.582;10.080;2022-08-19T07:44:46;55.40;;;44.27;;
16193;SDS011;8204;53.582;10.080;2022-08-19T07:47:13;47.93;;;40.00;;
16193;SDS011;8204;53.582;10.080;2022-08-19T07:49:42;43.50;;;37.70;;
16193;SDS011;8204;53.582;10.080;2022-08-19T07:52:09;45.70;;;37.30;;
16193;SDS011;8204;53.582;10.080;2022-08-19T07:54:38;42.73;;;37.53;;
16193;SDS011;8204;53.582;10.080;2022-08-19T07:57:05;44.67;;;36.83;;
16193;SDS011;8204;53.582;10.080;2022-08-19T07:59:33;39.90;;;34.43;;
16193;SDS011;8204;53.582;10.080;2022-08-19T08:01:59;44.27;;;36.20;;
16193;SDS011;8204;53.582;10.080;2022-08-19T08:04:27;44.53;;;37.20;;
16193;SDS011;8204;53.582;10.080;2022-08-19T08:07:12;38.03;;;33.87;;
16193;SDS011;8204;53.582;10.080;2022-08-19T08:09:58;41.43;;;35.00;;
16193;SDS011;8204;53.582;10.080;2022-08-19T08:12:26;41.17;;;36.90;;
16193;SDS011;8204;53.582;10.080;2022-08-19T08:14:56;41.70;;;36.63;;
16193;SDS011;8204;53.582;10.080;2022-08-19T08:17:25;42.93;;;37.53;;
16193;SDS011;8204;53.582;10.080;2022-08-19T08:19:53;43.83;;;38.93;;
16193;SDS011;8204;53.582;10.080;2022-08-19T08:22:20;42.27;;;37.90;;
16193;SDS011;8204;53.582;10.080;2022-08-19T08:25:08;43.50;;;34.37;;
16193;SDS011;8204;53.582;10.080;2022-08-19T08:27:37;48.00;;;36.80;;
16193;SDS011;8204;53.582;10.080;2022-08-19T08:30:05;38.43;;;34.47;;
16193;SDS011;8204;53.582;10.080;2022-08-19T08:32:34;39.83;;;35.93;;
16193;SDS011;8204;53.582;10.080;2022-08-19T08:35:01;38.43;;;34.53;;
16193;SDS011;8204;53.582;10.080;2022-08-19T08:37:28;38.77;;;34.60;;
16193;SDS011;8204;53.582;10.080;2022-08-19T08:39:55;40.23;;;34.50;;
16193;SDS011;8204;53.582;10.080;2022-08-19T08:42:24;35.63;;;31.73;;
16193;SDS011;8204;53.582;10.080;2022-08-19T08:44:56;36.40;;;32.57;;
16193;SDS011;8204;53.582;10.080;2022-08-19T08:47:26;35.67;;;31.13;;
16193;SDS011;8204;53.582;10.080;2022-08-19T08:49:58;32.10;;;28.80;;
16193;SDS011;8204;53.582;10.080;2022-08-19T08:52:29;32.37;;;29.00;;
16193;SDS011;8204;53.582;10.080;2022-08-19T08:55:03;32.07;;;28.63;;
16193;SDS011;8204;53.582;10.080;2022-08-19T08:57:35;31.63;;;27.20;;
16193;SDS011;8204;53.582;10.080;2022-08-19T09:00:06;31.30;;;26.97;;
16193;SDS011;8204;53.582;10.080;2022-08-19T09:02:36;29.37;;;26.40;;
16193;SDS011;8204;53.582;10.080;2022-08-19T09:05:04;29.77;;;26.57;;
16193;SDS011;8204;53.582;10.080;2022-08-19T09:07:34;31.60;;;27.03;;
16193;SDS011;8204;53.582;10.080;2022-08-19T09:10:13;30.00;;;27.10;;
16193;SDS011;8204;53.582;10.080;2022-08-19T09:12:55;33.10;;;29.67;;
16193;SDS011;8204;53.582;10.080;2022-08-19T09:15:34;29.47;;;26.40;;
16193;SDS011;8204;53.582;10.080;2022-08-19T09:18:04;29.37;;;26.33;;
16193;SDS011;8204;53.582;10.080;2022-08-19T09:20:31;31.73;;;28.60;;
16193;SDS011;8204;53.582;10.080;2022-08-19T09:22:58;32.07;;;28.57;;
16193;SDS011;8204;53.582;10.080;2022-08-19T09:25:25;35.57;;;29.20;;
16193;SDS011;8204;53.582;10.080;2022-08-19T09:27:54;31.13;;;27.63;;
16193;SDS011;8204;53.582;10.080;2022-08-19T09:30:23;35.33;;;27.73;;
16193;SDS011;8204;53.582;10.080;2022-08-19T09:32:51;29.50;;;25.80;;
16193;SDS011;8204;53.582;10.080;2022-08-19T09:35:19;31.43;;;28.37;;
16193;SDS011;8204;53.582;10.080;2022-08-19T09:37:47;29.37;;;26.30;;
16193;SDS011;8204;53.582;10.080;2022-08-19T09:40:14;28.80;;;25.77;;
16193;SDS011;8204;53.582;10.080;2022-08-19T09:42:42;29.97;;;26.97;;
16193;SDS011;8204;53.582;10.080;2022-08-19T09:45:13;29.43;;;26.60;;
16193;SDS011;8204;53.582;10.080;2022-08-19T09:47:40;29.70;;;26.70;;
16193;SDS011;8204;53.582;10.080;2022-08-19T09:50:08;33.87;;;28.23;;
16193;SDS011;8204;53.582;10.080;2022-08-19T09:52:37;27.63;;;24.77;;
16193;SDS011;8204;53.582;10.080;2022-08-19T09:55:03;31.23;;;27.97;;
16193;SDS011;8204;53.582;10.080;2022-08-19T09:57:31;29.83;;;26.73;;
16193;SDS011;8204;53.582;10.080;2022-08-19T09:59:58;30.00;;;26.87;;
16193;SDS011;8204;53.582;10.080;2022-08-19T10:02:25;28.90;;;25.83;;
16193;SDS011;8204;53.582;10.080;2022-08-19T10:04:52;29.70;;;25.73;;
16193;SDS011;8204;53.582;10.080;2022-08-19T10:07:36;28.23;;;25.27;;
16193;SDS011;8204;53.582;10.080;2022-08-19T10:10:03;28.43;;;25.53;;
16193;SDS011;8204;53.582;10.080;2022-08-19T10:12:31;26.13;;;23.60;;
16193;SDS011;8204;53.582;10.080;2022-08-19T10:14:58;32.03;;;26.63;;
16193;SDS011;8204;53.582;10.080;2022-08-19T10:17:26;28.40;;;25.17;;
16193;SDS011;8204;53.582;10.080;2022-08-19T10:19:54;28.77;;;25.53;;
16193;SDS011;8204;53.582;10.080;2022-08-19T10:22:20;30.47;;;27.17;;
16193;SDS011;8204;53.582;10.080;2022-08-19T10:24:47;30.60;;;25.80;;
16193;SDS011;8204;53.582;10.080;2022-08-19T10:27:14;28.97;;;26.00;;
16193;SDS011;8204;53.582;10.080;2022-08-19T10:29:41;30.73;;;26.30;;
16193;SDS011;8204;53.582;10.080;2022-08-19T10:32:08;29.83;;;26.53;;
16193;SDS011;8204;53.582;10.080;2022-08-19T10:34:37;28.13;;;25.33;;
16193;SDS011;8204;53.582;10.080;2022-08-19T10:37:05;26.50;;;23.67;;
16193;SDS011;8204;53.582;10.080;2022-08-19T10:39:32;31.50;;;26.40;;
16193;SDS011;8204;53.582;10.080;2022-08-19T10:42:03;28.47;;;25.63;;
16193;SDS011;8204;53.582;10.080;2022-08-19T10:44:31;29.00;;;26.13;;
16193;SDS011;8204;53.582;10.080;2022-08-19T10:46:58;26.33;;;23.37;;
16193;SDS011;8204;53.582;10.080;2022-08-19T10:49:25;28.07;;;23.23;;
16193;SDS011;8204;53.582;10.080;2022-08-19T10:51:53;29.33;;;26.23;;
16193;SDS011;8204;53.582;10.080;2022-08-19T10:54:37;30.13;;;26.83;;
16193;SDS011;8204;53.582;10.080;2022-08-19T10:57:21;27.87;;;25.13;;
16193;SDS011;8204;53.582;10.080;2022-08-19T10:59:56;27.57;;;24.63;;
16193;SDS011;8204;53.582;10.080;2022-08-19T11:02:22;26.23;;;23.53;;
16193;SDS011;8204;53.582;10.080;2022-08-19T11:04:49;28.70;;;24.57;;
16193;SDS011;8204;53.582;10.080;2022-08-19T11:07:17;29.37;;;26.27;;
16193;SDS011;8204;53.582;10.080;2022-08-19T11:09:44;26.40;;;23.57;;
16193;SDS011;8204;53.582;10.080;2022-08-19T11:12:11;26.30;;;23.90;;
16193;SDS011;8204;53.582;10.080;2022-08-19T11:14:41;27.70;;;24.97;;
16193;SDS011;8204;53.582;10.080;2022-08-19T11:17:07;29.30;;;26.50;;
16193;SDS011;8204;53.582;10.080;2022-08-19T11:19:34;29.63;;;26.73;;
16193;SDS011;8204;53.582;10.080;2022-08-19T11:22:01;30.57;;;27.73;;
16193;SDS011;8204;53.582;10.080;2022-08-19T11:24:30;32.30;;;26.77;;
16193;SDS011;8204;53.582;10.080;2022-08-19T11:27:00;32.87;;;29.50;;
16193;SDS011;8204;53.582;10.080;2022-08-19T11:29:29;31.83;;;28.63;;
16193;SDS011;8204;53.582;10.080;2022-08-19T11:31:56;30.97;;;27.73;;
16193;SDS011;8204;53.582;10.080;2022-08-19T11:34:24;29.73;;;26.87;;
16193;SDS011;8204;53.582;10.080;2022-08-19T11:36:52;32.80;;;25.87;;
16193;SDS011;8204;53.582;10.080;2022-08-19T11:39:20;32.37;;;24.93;;
16193;SDS011;8204;53.582;10.080;2022-08-19T11:41:49;29.57;;;26.03;;
16193;SDS011;8204;53.582;10.080;2022-08-19T11:44:15;34.17;;;26.23;;
16193;SDS011;8204;53.582;10.080;2022-08-19T11:46:43;29.67;;;26.67;;
16193;SDS011;8204;53.582;10.080;2022-08-19T11:49:14;27.37;;;24.50;;
16193;SDS011;8204;53.582;10.080;2022-08-19T11:51:43;31.03;;;26.43;;
16193;SDS011;8204;53.582;10.080;2022-08-19T11:54:11;30.47;;;26.23;;
16193;SDS011;8204;53.582;10.080;2022-08-19T11:56:40;26.73;;;23.87;;
16193;SDS011;8204;53.582;10.080;2022-08-19T11:59:08;26.37;;;23.67;;
16193;SDS011;8204;53.582;10.080;2022-08-19T12:01:35;24.13;;;21.63;;
16193;SDS011;8204;53.582;10.080;2022-08-19T12:04:02;26.43;;;23.83;;
16193;SDS011;8204;53.582;10.080;2022-08-19T12:06:31;26.77;;;24.17;;
16193;SDS011;8204;53.582;10.080;2022-08-19T12:09:00;26.87;;;24.30;;
16193;SDS011;8204;53.582;10.080;2022-08-19T12:11:29;22.77;;;20.77;;
16193;SDS011;8204;53.582;10.080;2022-08-19T12:13:56;24.83;;;22.63;;
16193;SDS011;8204;53.582;10.080;2022-08-19T12:16:25;25.30;;;23.00;;
16193;SDS011;8204;53.582;10.080;2022-08-19T12:18:54;23.47;;;21.17;;
16193;SDS011;8204;53.582;10.080;2022-08-19T12:21:23;23.07;;;20.83;;
16193;SDS011;8204;53.582;10.080;2022-08-19T12:23:52;21.57;;;19.53;;
16193;SDS011;8204;53.582;10.080;2022-08-19T12:26:21;21.47;;;19.67;;
16193;SDS011;8204;53.582;10.080;2022-08-19T12:28:48;21.63;;;19.43;;
16193;SDS011;8204;53.582;10.080;2022-08-19T12:31:15;21.93;;;19.77;;
16193;SDS011;8204;53.582;10.080;2022-08-19T12:33:43;21.33;;;19.23;;
16193;SDS011;8204;53.582;10.080;2022-08-19T12:36:11;21.50;;;19.53;;
16193;SDS011;8204;53.582;10.080;2022-08-19T12:38:40;19.83;;;18.03;;
16193;SDS011;8204;53.582;10.080;2022-08-19T12:41:09;20.83;;;18.83;;
16193;SDS011;8204;53.582;10.080;2022-08-19T12:43:37;20.53;;;18.63;;
16193;SDS011;8204;53.582;10.080;2022-08-19T12:46:04;19.70;;;17.87;;
16193;SDS011;8204;53.582;10.080;2022-08-19T12:48:32;18.40;;;16.50;;
16193;SDS011;8204;53.582;10.080;2022-08-19T12:51:00;18.60;;;16.90;;
16193;SDS011;8204;53.582;10.080;2022-08-19T12:53:31;19.97;;;18.23;;
16193;SDS011;8204;53.582;10.080;2022-08-19T12:55:58;19.60;;;17.73;;
16193;SDS011;8204;53.582;10.080;2022-08-19T12:58:25;19.77;;;18.00;;
16193;SDS011;8204;53.582;10.080;2022-08-19T13:00:52;19.23;;;17.33;;
16193;SDS011;8204;53.582;10.080;2022-08-19T13:03:18;17.50;;;15.93;;
16193;SDS011;8204;53.582;10.080;2022-08-19T13:05:45;20.90;;;19.10;;
16193;SDS011;8204;53.582;10.080;2022-08-19T13:08:13;24.30;;;21.90;;
16193;SDS011;8204;53.582;10.080;2022-08-19T13:10:40;23.63;;;21.50;;
16193;SDS011;8204;53.582;10.080;2022-08-19T13:13:08;27.27;;;25.07;;
16193;SDS011;8204;53.582;10.080;2022-08-19T13:15:36;21.60;;;19.80;;
16193;SDS011;8204;53.582;10.080;2022-08-19T13:18:06;22.87;;;20.97;;
16193;SDS011;8204;53.582;10.080;2022-08-19T13:20:34;19.27;;;17.40;;
16193;SDS011;8204;53.582;10.080;2022-08-19T13:23:02;21.97;;;20.00;;
16193;SDS011;8204;53.582;10.080;2022-08-19T13:25:30;19.73;;;18.20;;
16193;SDS011;8204;53.582;10.080;2022-08-19T13:27:56;18.53;;;16.93;;
16193;SDS011;8204;53.582;10.080;2022-08-19T13:30:23;20.07;;;18.07;;
16193;SDS011;8204;53.582;10.080;2022-08-19T13:33:07;22.50;;;20.27;;
16193;SDS011;8204;53.582;10.080;2022-08-19T13:35:40;21.87;;;20.10;;
16193;SDS011;8204;53.582;10.080;2022-08-19T13:38:08;21.93;;;19.80;;
16193;SDS011;8204;53.582;10.080;2022-08-19T13:40:36;18.20;;;16.20;;
16193;SDS011;8204;53.582;10.080;2022-08-19T13:43:04;17.60;;;15.83;;
16193;SDS011;8204;53.582;10.080;2022-08-19T13:45:32;17.17;;;15.77;;
16193;SDS011;8204;53.582;10.080;2022-08-19T13:47:59;18.33;;;16.83;;
16193;SDS011;8204;53.582;10.080;2022-08-19T13:50:29;19.07;;;17.47;;
16193;SDS011;8204;53.582;10.080;2022-08-19T13:52:57;19.53;;;17.83;;
16193;SDS011;8204;53.582;10.080;2022-08-19T13:55:24;16.10;;;14.90;;
16193;SDS011;8204;53.582;10.080;2022-08-19T13:57:53;17.97;;;16.47;;
16193;SDS011;8204;53.582;10.080;2022-08-19T14:00:22;19.67;;;17.77;;
16193;SDS011;8204;53.582;10.080;2022-08-19T14:02:51;18.63;;;16.90;;
16193;SDS011;8204;53.582;10.080;2022-08-19T14:05:21;18.80;;;17.03;;
16193;SDS011;8204;53.582;10.080;2022-08-19T14:07:48;18.20;;;16.77;;
16193;SDS011;8204;53.582;10.080;2022-08-19T14:10:15;17.73;;;16.27;;
16193;SDS011;8204;53.582;10.080;2022-08-19T14:12:42;19.17;;;17.47;;
16193;SDS011;8204;53.582;10.080;2022-08-19T14:15:11;17.97;;;16.47;;
16193;SDS011;8204;53.582;10.080;2022-08-19T14:17:38;16.23;;;14.87;;
16193;SDS011;8204;53.582;10.080;2022-08-19T14:20:05;16.07;;;14.67;;
16193;SDS011;8204;53.582;10.080;2022-08-19T14:22:34;17.70;;;16.20;;
16193;SDS011;8204;53.582;10.080;2022-08-19T14:25:02;17.80;;;16.10;;
16193;SDS011;8204;53.582;10.080;2022-08-19T14:27:30;17.93;;;16.33;;